Time;durP1;ratioP1;P1;durP2;ratioP2;P2;SDS_P1;SDS_P2;PMS_P1;PMS_P2;Temp;Humidity;BMP_temperature;BMP_pressure;BME280_temperature;BME280_humidity;BME280_pressure;Samples;Min_cycle;Max_cycle;Signal;HPM_P1;HPM_P2
2024/01/05 00:01:04;;;;;;;2.40;1.60;;;;;;;1.86;67.63;92015.94;2064636;69;20165;-83
2024/01/05 00:03:31;;;;;;;4.10;2.00;;;;;;;2.00;67.20;92012.25;2061161;69;20141;-85
2024/01/05 00:06:02;;;;;;;2.13;1.50;;;;;;;2.00;67.22;92011.50;2066747;69;20231;-82
2024/01/05 00:08:34;;;;;;;3.83;2.30;;;;;;;1.12;70.38;92023.06;2067874;69;20155;-80
2024/01/05 00:11:00;;;;;;;5.82;2.55;;;;;;;1.53;69.29;92016.78;2061491;69;20282;-84
2024/01/05 00:13:27;;;;;;;4.20;2.42;;;;;;;1.59;68.61;92007.50;2064853;69;20175;-83
2024/01/05 00:15:54;;;;;;;5.07;2.00;;;;;;;1.73;67.89;92003.09;2063760;69;20169;-84
2024/01/05 00:18:21;;;;;;;3.38;2.03;;;;;;;1.82;67.60;91998.94;2064674;69;20203;-84
2024/01/05 00:20:48;;;;;;;3.05;2.08;;;;;;;1.84;67.83;91996.34;2060490;69;20517;-85
2024/01/05 00:23:19;;;;;;;4.47;1.90;;;;;;;1.67;67.42;91992.25;2060984;69;20605;-85
2024/01/05 00:25:46;;;;;;;4.25;1.75;;;;;;;1.74;68.12;91999.78;2061597;69;20165;-85
2024/01/05 00:28:12;;;;;;;3.95;2.35;;;;;;;1.80;67.81;91993.25;2061574;69;20151;-86
2024/01/05 00:30:43;;;;;;;3.60;1.65;;;;;;;1.83;67.74;91986.53;2057880;69;20177;-86
2024/01/05 00:33:09;;;;;;;2.00;1.52;;;;;;;1.82;67.04;91985.78;2063188;69;20213;-85
2024/01/05 00:35:35;;;;;;;2.33;1.40;;;;;;;1.81;67.14;91978.06;2064869;69;20153;-85
2024/01/05 00:38:11;;;;;;;2.30;1.38;;;;;;;1.87;66.73;91970.19;2064708;69;20157;-84
2024/01/05 00:40:38;;;;;;;3.35;1.70;;;;;;;1.45;68.12;91976.56;2062082;69;20251;-85
2024/01/05 00:43:04;;;;;;;3.13;1.98;;;;;;;1.48;68.63;91984.47;2061673;69;20583;-86
2024/01/05 00:45:32;;;;;;;5.78;2.10;;;;;;;1.35;68.91;91968.16;2059967;69;20176;-85
2024/01/05 00:48:01;;;;;;;4.03;1.70;;;;;;;1.58;68.33;91979.03;2062091;69;20153;-86
2024/01/05 00:50:28;;;;;;;4.45;1.95;;;;;;;1.68;67.62;91979.09;2061353;69;20180;-82
2024/01/05 00:52:55;;;;;;;3.58;1.70;;;;;;;1.64;67.67;91971.19;2062064;69;20157;-84
2024/01/05 00:55:24;;;;;;;3.35;1.73;;;;;;;1.43;68.06;91979.19;2062246;69;20180;-84
2024/01/05 00:57:50;;;;;;;2.80;1.70;;;;;;;1.55;68.62;91977.38;2061579;69;20160;-85
2024/01/05 01:00:20;;;;;;;3.38;1.95;;;;;;;1.64;68.04;91973.94;2061959;69;20141;-81
2024/01/05 01:02:46;;;;;;;4.85;2.00;;;;;;;1.43;68.43;91970.84;2063034;69;20149;-83
2024/01/05 01:05:14;;;;;;;3.20;1.77;;;;;;;1.52;67.83;91951.53;2062458;69;20234;-84
2024/01/05 01:07:42;;;;;;;2.63;1.80;;;;;;;1.58;67.95;91967.19;2063064;69;20141;-85
2024/01/05 01:10:15;;;;;;;2.55;1.60;;;;;;;1.62;67.56;91967.53;2060754;69;20164;-87
2024/01/05 01:12:47;;;;;;;3.78;2.00;;;;;;;1.66;67.73;91971.34;2063031;69;20137;-87
2024/01/05 01:15:15;;;;;;;3.33;1.88;;;;;;;1.69;67.46;91963.91;2062046;69;20171;-84
2024/01/05 01:17:42;;;;;;;5.15;1.60;;;;;;;1.73;67.79;91967.75;2061958;69;20659;-84
2024/01/05 01:20:09;;;;;;;4.03;1.63;;;;;;;1.59;67.61;91965.88;2065180;69;20615;-82
2024/01/05 01:22:39;;;;;;;3.45;1.60;;;;;;;1.67;67.51;91966.53;2068701;69;20148;-83
2024/01/05 01:25:05;;;;;;;4.75;1.80;;;;;;;1.64;67.70;91965.63;2063166;69;20165;-83
2024/01/05 01:27:34;;;;;;;3.90;1.77;;;;;;;1.64;67.75;91959.34;2064997;69;20161;-85
2024/01/05 01:30:01;;;;;;;2.15;1.55;;;;;;;1.73;67.43;91961.47;2061993;69;20148;-84
2024/01/05 01:32:29;;;;;;;4.60;2.35;;;;;;;1.64;68.19;91959.34;2061935;69;20157;-82
2024/01/05 01:34:55;;;;;;;4.63;2.17;;;;;;;1.45;68.53;91962.69;2062675;69;20140;-84
2024/01/05 01:37:25;;;;;;;3.97;2.10;;;;;;;1.37;68.93;91968.31;2065169;69;20202;-84
2024/01/05 01:39:53;;;;;;;4.45;2.17;;;;;;;1.53;68.63;91961.31;2065431;69;20140;-83
2024/01/05 01:42:21;;;;;;;4.25;2.10;;;;;;;1.54;68.91;91956.50;2061822;69;20185;-84
2024/01/05 01:44:50;;;;;;;3.60;1.90;;;;;;;1.16;69.63;91949.28;2061459;69;20160;-84
2024/01/05 01:47:17;;;;;;;3.22;1.90;;;;;;;1.36;69.72;91943.91;2061857;69;20219;-81
2024/01/05 01:49:44;;;;;;;5.95;2.10;;;;;;;1.60;69.00;91939.59;2064973;69;20149;-83
2024/01/05 01:52:13;;;;;;;3.47;1.80;;;;;;;1.64;68.65;91937.88;2061953;69;20152;-83
2024/01/05 01:54:42;;;;;;;3.42;1.88;;;;;;;1.59;68.45;91936.09;2065236;69;20145;-83
2024/01/05 01:57:10;;;;;;;3.03;1.90;;;;;;;1.40;69.07;91944.97;2061768;69;20160;-83
2024/01/05 01:59:37;;;;;;;4.40;2.03;;;;;;;1.44;69.24;91950.88;2064709;69;20164;-85
2024/01/05 02:02:04;;;;;;;3.55;1.73;;;;;;;1.58;69.07;91942.97;2065141;69;20221;-83
2024/01/05 02:04:34;;;;;;;5.63;1.92;;;;;;;1.69;68.38;91939.69;2065051;69;20165;-84
2024/01/05 02:07:01;;;;;;;3.03;1.67;;;;;;;1.69;68.44;91941.72;2065154;69;20240;-84
2024/01/05 02:09:30;;;;;;;2.72;1.65;;;;;;;1.57;68.19;91927.63;2064660;69;20248;-84
2024/01/05 02:12:01;;;;;;;3.08;1.50;;;;;;;1.60;68.37;91934.78;2064747;69;20141;-83
2024/01/05 02:14:34;;;;;;;4.28;1.83;;;;;;;1.22;69.76;91932.41;2064866;69;20161;-85
2024/01/05 02:17:02;;;;;;;4.05;2.10;;;;;;;1.23;69.65;91936.63;2064945;69;20708;-83
2024/01/05 02:19:29;;;;;;;3.40;1.80;;;;;;;1.30;69.60;91918.47;2064664;69;20172;-83
2024/01/05 02:21:59;;;;;;;4.70;1.90;;;;;;;1.34;69.43;91914.00;2058484;69;20161;-83
2024/01/05 02:24:28;;;;;;;3.83;1.88;;;;;;;0.95;70.14;91915.66;2061843;69;20613;-84
2024/01/05 02:26:55;;;;;;;3.20;1.95;;;;;;;1.27;70.12;91907.19;2061865;69;20153;-83
2024/01/05 02:29:22;;;;;;;2.67;2.00;;;;;;;1.33;69.39;91893.13;2060786;69;20196;-83
2024/01/05 02:31:48;;;;;;;6.32;2.60;;;;;;;1.33;69.47;91882.03;2061700;69;20153;-86
2024/01/05 02:34:14;;;;;;;4.20;2.28;;;;;;;1.45;69.46;91882.97;2061081;69;20169;-84
2024/01/05 02:36:40;;;;;;;3.95;2.13;;;;;;;1.39;69.36;91879.00;2061391;69;20158;-84
2024/01/05 02:39:07;;;;;;;4.38;2.03;;;;;;;1.36;69.06;91842.03;2061101;69;20149;-86
2024/01/05 02:41:32;;;;;;;2.88;1.85;;;;;;;1.39;69.01;91838.13;2061737;69;20172;-86
2024/01/05 02:43:58;;;;;;;2.85;1.42;;;;;;;1.45;68.75;91832.34;2060921;69;20162;-83
2024/01/05 02:46:24;;;;;;;2.63;1.20;;;;;;;1.37;68.27;91826.13;2060367;69;20137;-84
2024/01/05 02:48:50;;;;;;;2.20;1.33;;;;;;;1.47;68.44;91835.28;2061573;69;20149;-82
2024/01/05 02:51:16;;;;;;;2.15;1.02;;;;;;;1.49;67.72;91844.47;2061556;69;20509;-82
2024/01/05 02:53:43;;;;;;;5.20;1.58;;;;;;;1.33;69.06;91840.44;2061063;69;20145;-81
2024/01/05 02:56:20;;;;;;;4.72;1.80;;;;;;;1.25;69.78;91843.28;2061727;69;20208;-84
2024/01/05 02:58:47;;;;;;;3.58;1.80;;;;;;;1.27;69.19;91835.13;2061502;69;20162;-85
2024/01/05 03:01:16;;;;;;;1.90;1.40;;;;;;;1.39;69.14;91843.69;2061209;69;20129;-85
2024/01/05 03:03:51;;;;;;;2.92;1.48;;;;;;;1.38;69.15;91838.72;2061159;69;20153;-85
2024/01/05 03:06:19;;;;;;;3.05;1.60;;;;;;;1.42;68.49;91837.00;2057544;69;20159;-85
2024/01/05 03:08:46;;;;;;;3.05;1.40;;;;;;;1.13;69.00;91819.38;2060776;69;20541;-85
2024/01/05 03:11:12;;;;;;;2.60;1.60;;;;;;;1.16;69.95;91813.44;2060938;69;20624;-84
2024/01/05 03:13:41;;;;;;;2.35;1.45;;;;;;;1.34;69.51;91816.22;2060607;69;20189;-83
2024/01/05 03:16:07;;;;;;;3.35;1.70;;;;;;;1.40;69.34;91800.03;2063571;69;20152;-84
2024/01/05 03:18:33;;;;;;;3.15;1.63;;;;;;;1.51;68.87;91799.50;2062396;69;20153;-83
2024/01/05 03:20:58;;;;;;;3.60;1.40;;;;;;;1.46;68.40;91806.78;2063196;69;20156;-84
2024/01/05 03:23:25;;;;;;;3.10;1.70;;;;;;;1.39;68.93;91812.44;2060658;69;20148;-85
2024/01/05 03:25:51;;;;;;;2.67;1.48;;;;;;;1.37;69.28;91810.22;2061378;69;20157;-83
2024/01/05 03:28:18;;;;;;;2.33;1.30;;;;;;;1.59;68.67;91816.06;2063752;69;20149;-87
2024/01/05 03:30:44;;;;;;;2.28;1.30;;;;;;;1.70;68.03;91821.84;2061560;69;20263;-84
2024/01/05 03:33:10;;;;;;;2.90;1.60;;;;;;;1.63;68.09;91825.44;2062332;69;20238;-83
2024/01/05 03:35:37;;;;;;;2.03;1.20;;;;;;;1.46;68.59;91806.78;2064618;69;20153;-82
2024/01/05 03:38:04;;;;;;;1.98;1.33;;;;;;;1.48;68.62;91814.56;2064020;69;20201;-87
2024/01/05 03:40:32;;;;;;;3.03;1.33;;;;;;;1.47;69.00;91799.94;2061076;69;20137;-85
2024/01/05 03:42:58;;;;;;;2.30;1.25;;;;;;;1.57;68.16;91785.41;2062765;69;20148;-83
2024/01/05 03:45:26;;;;;;;1.73;1.15;;;;;;;1.80;67.35;91783.06;2060733;69;20189;-86
2024/01/05 03:47:52;;;;;;;1.92;1.30;;;;;;;1.85;67.17;91775.78;2061670;69;20532;-87
2024/01/05 03:50:19;;;;;;;5.30;1.10;;;;;;;1.95;67.23;91757.13;2063972;69;20179;-85
2024/01/05 03:52:46;;;;;;;2.42;1.08;;;;;;;1.97;67.27;91755.25;2063946;69;20157;-85
2024/01/05 03:55:12;;;;;;;1.02;0.90;;;;;;;1.94;66.68;91728.63;2059644;69;20146;-83
2024/01/05 03:57:38;;;;;;;3.47;1.88;;;;;;;1.66;67.83;91743.13;2060982;69;20161;-85
2024/01/05 04:00:07;;;;;;;2.88;1.45;;;;;;;1.93;66.97;91729.22;2062136;69;20596;-84
2024/01/05 04:02:33;;;;;;;4.53;1.40;;;;;;;1.97;67.07;91724.72;2061220;69;20211;-83
2024/01/05 04:04:59;;;;;;;4.70;1.70;;;;;;;1.86;67.17;91713.41;2060657;69;20169;-83
2024/01/05 04:07:26;;;;;;;2.90;1.60;;;;;;;1.92;67.61;91719.41;2060688;69;20281;-82
2024/01/05 04:09:54;;;;;;;2.63;1.50;;;;;;;2.05;67.26;91724.56;2059334;69;20209;-82
2024/01/05 04:12:19;;;;;;;2.47;1.40;;;;;;;2.09;67.35;91735.25;2061903;69;20148;-81
2024/01/05 04:14:45;;;;;;;1.98;1.35;;;;;;;2.10;67.40;91729.13;2062104;69;20165;-85
2024/01/05 04:17:11;;;;;;;6.38;2.03;;;;;;;2.10;67.24;91731.88;2060912;69;20279;-84
2024/01/05 04:19:37;;;;;;;5.22;2.40;;;;;;;1.99;67.22;91726.91;2061607;69;20211;-83
2024/01/05 04:22:05;;;;;;;3.47;2.17;;;;;;;1.99;67.55;91729.66;2068027;69;20148;-82
2024/01/05 04:24:31;;;;;;;5.60;2.63;;;;;;;1.99;67.76;91729.66;2063856;69;20204;-84
2024/01/05 04:26:57;;;;;;;3.10;1.92;;;;;;;2.06;67.89;91720.47;2070276;69;20179;-86
2024/01/05 04:29:22;;;;;;;4.28;1.90;;;;;;;2.12;67.92;91728.56;2070940;69;20149;-85
2024/01/05 04:31:48;;;;;;;5.80;2.30;;;;;;;2.09;67.88;91729.69;2068882;69;20219;-85
2024/01/05 04:34:15;;;;;;;4.10;2.13;;;;;;;2.08;67.71;91731.75;2071937;69;20141;-84
2024/01/05 04:36:42;;;;;;;2.72;1.75;;;;;;;2.09;68.00;91738.03;2067966;69;20152;-84
2024/01/05 04:39:09;;;;;;;3.30;1.70;;;;;;;1.63;69.34;91749.81;2065834;69;20528;-85
2024/01/05 04:41:35;;;;;;;2.83;1.60;;;;;;;1.83;68.82;91739.53;2067426;69;20168;-84
2024/01/05 04:44:03;;;;;;;3.17;1.80;;;;;;;1.67;69.56;91720.34;2063329;69;20160;-84
2024/01/05 04:46:29;;;;;;;3.28;1.77;;;;;;;2.02;68.47;91720.19;2059567;69;20153;-82
2024/01/05 04:48:55;;;;;;;3.53;2.08;;;;;;;2.14;67.84;91721.09;2067485;69;20256;-83
2024/01/05 04:51:21;;;;;;;2.97;1.65;;;;;;;2.08;67.79;91697.72;2067222;69;20614;-85
2024/01/05 04:53:49;;;;;;;2.67;1.42;;;;;;;2.13;67.83;91707.81;2066066;69;20173;-84
2024/01/05 04:56:15;;;;;;;2.00;1.30;;;;;;;2.15;67.60;91705.16;2065696;69;20232;-84
2024/01/05 04:58:41;;;;;;;2.13;1.23;;;;;;;2.22;67.28;91699.50;2062619;69;20206;-84
2024/01/05 05:01:07;;;;;;;2.00;1.25;;;;;;;2.22;66.94;91687.66;2066752;69;20270;-84
2024/01/05 05:03:38;;;;;;;3.58;1.52;;;;;;;2.42;66.13;91708.59;2067274;69;20596;-88
2024/01/05 05:06:04;;;;;;;2.60;1.67;;;;;;;2.31;66.37;91691.75;2061650;69;20247;-85
2024/01/05 05:08:32;;;;;;;2.92;2.00;;;;;;;2.19;66.25;91708.25;2065307;69;20156;-85
2024/01/05 05:10:57;;;;;;;2.17;1.60;;;;;;;2.28;65.18;91704.75;2061303;69;20231;-85
2024/01/05 05:13:24;;;;;;;1.90;1.23;;;;;;;2.42;65.12;91714.13;2063982;69;20678;-84
2024/01/05 05:15:50;;;;;;;3.05;1.65;;;;;;;2.21;63.83;91703.59;2065967;69;20152;-84
2024/01/05 05:18:15;;;;;;;3.50;1.50;;;;;;;2.39;64.43;91701.44;2065562;69;20156;-84
2024/01/05 05:20:44;;;;;;;2.25;1.20;;;;;;;2.48;64.29;91689.59;2067845;69;20195;-83
2024/01/05 05:23:09;;;;;;;2.58;1.23;;;;;;;2.49;64.67;91684.78;2066797;69;20148;-83
2024/01/05 05:25:35;;;;;;;1.88;1.42;;;;;;;2.55;63.80;91685.94;2060886;69;20141;-85
2024/01/05 05:28:01;;;;;;;1.90;1.40;;;;;;;2.52;64.24;91683.59;2066922;69;20179;-86
2024/01/05 05:30:27;;;;;;;3.60;1.73;;;;;;;2.69;63.83;91686.25;2061407;69;20160;-86
2024/01/05 05:32:52;;;;;;;1.45;1.17;;;;;;;2.65;62.76;91682.44;2068051;69;20178;-85
2024/01/05 05:35:18;;;;;;;1.83;1.17;;;;;;;2.72;62.80;91687.88;2059660;69;20137;-87
2024/01/05 05:37:46;;;;;;;1.77;1.40;;;;;;;2.57;63.00;91687.41;2065896;69;20321;-85
2024/01/05 05:40:12;;;;;;;2.55;1.92;;;;;;;2.78;62.91;91676.44;2063435;69;20172;-86
2024/01/05 05:42:38;;;;;;;2.42;1.67;;;;;;;2.83;62.73;91669.13;2061097;69;20243;-85
2024/01/05 05:45:04;;;;;;;3.00;1.30;;;;;;;2.87;62.83;91672.19;2066253;69;20149;-85
2024/01/05 05:47:36;;;;;;;1.77;1.30;;;;;;;2.85;63.12;91677.63;2064640;69;20166;-87
2024/01/05 05:50:05;;;;;;;2.28;1.23;;;;;;;2.66;62.67;91667.97;2065088;69;20165;-84
2024/01/05 05:52:32;;;;;;;1.80;1.20;;;;;;;2.73;62.26;91669.13;2064332;69;20243;-85
2024/01/05 05:54:59;;;;;;;2.70;1.27;;;;;;;2.79;62.47;91675.88;2065789;69;20605;-85
2024/01/05 05:57:25;;;;;;;3.55;2.00;;;;;;;2.66;62.43;91683.94;2062674;69;20165;-84
2024/01/05 05:59:51;;;;;;;3.90;1.95;;;;;;;2.80;62.72;91682.16;2066189;69;20184;-84
2024/01/05 06:02:18;;;;;;;3.65;1.70;;;;;;;2.68;62.84;91679.22;2065281;69;20658;-87
2024/01/05 06:04:43;;;;;;;2.53;1.70;;;;;;;2.74;63.42;91681.72;2064859;69;20159;-86
2024/01/05 06:07:09;;;;;;;14.43;6.00;;;;;;;2.87;63.21;91684.06;2060393;69;20188;-83
2024/01/05 06:09:36;;;;;;;15.32;7.35;;;;;;;2.76;63.31;91682.59;2062694;69;20227;-84
2024/01/05 06:12:03;;;;;;;16.60;7.20;;;;;;;2.62;64.32;91686.41;2064841;69;20580;-83
2024/01/05 06:14:31;;;;;;;15.75;6.85;;;;;;;2.64;64.23;91670.59;2064033;69;20141;-84
2024/01/05 06:16:57;;;;;;;15.85;5.95;;;;;;;2.79;64.39;91692.56;2064035;69;20485;-84
2024/01/05 06:19:24;;;;;;;11.30;5.35;;;;;;;2.69;64.44;91677.19;2064780;69;20155;-84
2024/01/05 06:21:49;;;;;;;8.75;4.45;;;;;;;2.75;64.64;91685.97;2065861;69;20184;-84
2024/01/05 06:24:15;;;;;;;8.02;3.67;;;;;;;2.47;65.12;91668.69;2065085;69;20593;-84
2024/01/05 06:26:41;;;;;;;10.60;4.70;;;;;;;2.40;66.35;91691.78;2064865;69;20168;-84
2024/01/05 06:29:07;;;;;;;9.90;5.05;;;;;;;2.46;65.76;91697.03;2063812;69;20184;-83
2024/01/05 06:31:33;;;;;;;12.45;5.15;;;;;;;2.37;66.01;91692.94;2065056;69;20607;-82
2024/01/05 06:33:59;;;;;;;8.38;4.05;;;;;;;2.04;66.46;91703.69;2061544;69;20145;-78
2024/01/05 06:36:24;;;;;;;8.68;3.80;;;;;;;2.27;66.25;91706.06;2062002;69;20248;-81
2024/01/05 06:38:50;;;;;;;10.93;5.50;;;;;;;2.38;66.05;91682.56;2065079;69;20147;-82
2024/01/05 06:41:16;;;;;;;17.50;8.05;;;;;;;2.40;65.70;91682.72;2064210;69;20164;-81
2024/01/05 06:43:42;;;;;;;8.30;4.05;;;;;;;2.41;65.69;91689.72;2061578;69;20210;-82
2024/01/05 06:46:07;;;;;;;7.95;3.10;;;;;;;2.40;65.47;91685.50;2064943;69;20152;-80
2024/01/05 06:48:33;;;;;;;13.50;6.63;;;;;;;2.27;66.30;91698.47;2064364;69;20160;-81
2024/01/05 06:50:59;;;;;;;13.73;6.03;;;;;;;2.41;66.02;91698.78;2064783;69;20156;-78
2024/01/05 06:53:25;;;;;;;17.83;9.02;;;;;;;1.69;68.41;91716.97;2067781;69;20152;-79
2024/01/05 06:55:51;;;;;;;19.27;9.68;;;;;;;1.89;69.00;91703.94;2062102;69;20306;-80
2024/01/05 06:58:16;;;;;;;23.15;11.00;;;;;;;2.23;67.82;91694.66;2064588;69;20151;-79
2024/01/05 07:00:42;;;;;;;14.55;7.57;;;;;;;2.34;67.33;91694.13;2065166;69;20141;-81
2024/01/05 07:03:08;;;;;;;13.98;6.40;;;;;;;2.01;67.54;91707.59;2065520;69;20152;-79
2024/01/05 07:05:33;;;;;;;17.15;8.18;;;;;;;1.98;68.38;91706.75;2065621;69;20248;-80
2024/01/05 07:08:00;;;;;;;13.70;7.43;;;;;;;2.25;67.78;91701.13;2065371;69;20207;-78
2024/01/05 07:10:27;;;;;;;18.08;9.45;;;;;;;2.33;67.41;91700.97;2065494;69;20176;-81
2024/01/05 07:12:52;;;;;;;16.27;8.85;;;;;;;2.41;67.02;91696.00;2068417;69;20144;-85
2024/01/05 07:15:18;;;;;;;12.80;7.10;;;;;;;2.37;66.63;91694.97;2064252;69;20208;-80
2024/01/05 07:17:44;;;;;;;14.60;6.57;;;;;;;2.17;67.22;91692.19;2063565;69;20145;-83
2024/01/05 07:20:13;;;;;;;13.00;6.60;;;;;;;2.46;66.76;91688.72;2063968;69;20146;-82
2024/01/05 07:22:39;;;;;;;12.35;6.85;;;;;;;2.55;66.49;91699.84;2064261;69;20287;-81
2024/01/05 07:25:09;;;;;;;12.15;6.43;;;;;;;2.64;66.37;91700.44;2064300;69;20141;-82
2024/01/05 07:27:37;;;;;;;13.05;6.57;;;;;;;2.70;66.40;91703.66;2064670;69;20588;-81
2024/01/05 07:30:04;;;;;;;9.68;5.40;;;;;;;2.81;65.37;91705.88;2058477;69;20153;-82
2024/01/05 07:32:30;;;;;;;12.30;6.38;;;;;;;2.67;66.42;91702.78;2064886;69;20307;-82
2024/01/05 07:34:55;;;;;;;31.65;11.50;;;;;;;2.69;66.44;91697.34;2064503;69;20200;-83
2024/01/05 07:37:22;;;;;;;10.23;6.03;;;;;;;2.78;66.15;91682.72;2064923;69;20614;-81
2024/01/05 07:39:47;;;;;;;6.68;3.75;;;;;;;2.93;66.03;91667.81;2064455;69;20160;-82
2024/01/05 07:42:13;;;;;;;4.35;2.60;;;;;;;3.03;65.28;91674.09;2064556;69;20141;-81
2024/01/05 07:44:39;;;;;;;28.48;12.88;;;;;;;2.68;66.54;91681.28;2064794;69;20149;-82
2024/01/05 07:47:05;;;;;;;26.15;13.05;;;;;;;2.90;66.51;91676.59;2064635;69;20611;-81
2024/01/05 07:49:30;;;;;;;27.10;13.65;;;;;;;3.18;66.15;91666.75;2064614;69;20133;-80
2024/01/05 07:51:57;;;;;;;23.90;12.63;;;;;;;3.28;66.15;91667.47;2064881;69;20601;-81
2024/01/05 07:54:24;;;;;;;22.88;11.57;;;;;;;3.34;65.78;91664.38;2064730;69;20201;-81
2024/01/05 07:56:49;;;;;;;16.42;9.25;;;;;;;3.39;64.99;91663.34;2060832;69;20141;-79
2024/01/05 07:59:15;;;;;;;7.75;4.03;;;;;;;3.26;63.48;91659.72;2064988;69;20632;-80
2024/01/05 08:01:41;;;;;;;6.38;3.42;;;;;;;3.34;63.01;91659.53;2061224;69;20142;-81
2024/01/05 08:04:08;;;;;;;7.68;4.05;;;;;;;3.14;62.51;91667.19;2064678;69;20172;-81
2024/01/05 08:06:34;;;;;;;7.35;3.72;;;;;;;3.60;62.51;91666.22;2061375;69;20539;-81
2024/01/05 08:08:59;;;;;;;8.23;3.80;;;;;;;3.69;61.86;91654.31;2064829;69;20144;-81
2024/01/05 08:11:25;;;;;;;4.90;2.90;;;;;;;3.94;61.35;91655.97;2064503;69;20149;-80
2024/01/05 08:13:51;;;;;;;4.80;2.60;;;;;;;4.13;60.87;91653.09;2060956;69;20213;-80
2024/01/05 08:16:18;;;;;;;7.65;2.97;;;;;;;4.14;60.91;91640.63;2064639;69;20137;-81
2024/01/05 08:18:45;;;;;;;8.88;4.35;;;;;;;4.11;60.06;91643.88;2064545;69;20255;-80
2024/01/05 08:21:11;;;;;;;10.45;4.82;;;;;;;4.16;59.79;91637.25;2064470;69;20631;-81
2024/01/05 08:23:36;;;;;;;13.13;6.88;;;;;;;3.81;61.89;91649.59;2064792;69;20156;-81
2024/01/05 08:26:06;;;;;;;12.07;6.15;;;;;;;4.17;62.23;91644.25;2064250;69;20153;-81
2024/01/05 08:28:32;;;;;;;11.38;5.93;;;;;;;4.42;61.74;91630.63;2064668;69;20399;-81
2024/01/05 08:30:58;;;;;;;11.55;5.60;;;;;;;4.59;61.55;91635.22;2064641;69;20548;-81
2024/01/05 08:33:24;;;;;;;10.20;5.05;;;;;;;4.65;61.46;91632.81;2061103;69;20200;-81
2024/01/05 08:35:49;;;;;;;11.55;5.57;;;;;;;4.56;61.41;91636.41;2064866;69;20659;-81
2024/01/05 08:38:15;;;;;;;10.25;6.13;;;;;;;4.26;61.86;91635.13;2064873;69;20129;-81
2024/01/05 08:40:41;;;;;;;11.55;6.30;;;;;;;4.09;62.29;91630.53;2060981;69;20227;-81
2024/01/05 08:43:07;;;;;;;12.52;6.15;;;;;;;4.52;61.63;91631.28;2064622;69;20153;-82
2024/01/05 08:45:34;;;;;;;13.50;6.90;;;;;;;4.74;61.35;91634.06;2061434;69;20157;-82
2024/01/05 08:48:00;;;;;;;15.48;7.63;;;;;;;4.79;61.14;91630.22;2064778;69;20144;-81
2024/01/05 08:50:26;;;;;;;13.85;7.60;;;;;;;4.87;60.98;91636.31;2061069;69;20176;-81
2024/01/05 08:52:51;;;;;;;18.20;10.05;;;;;;;4.83;61.38;91639.56;2061156;69;20315;-82
2024/01/05 08:55:19;;;;;;;14.00;7.85;;;;;;;4.95;61.02;91633.28;2064252;69;20157;-82
2024/01/05 08:57:48;;;;;;;15.43;9.00;;;;;;;4.93;60.90;91630.38;2064814;69;20153;-81
2024/01/05 09:00:15;;;;;;;18.13;8.50;;;;;;;4.76;60.61;91625.81;2062007;69;20194;-82
2024/01/05 09:02:40;;;;;;;21.25;9.32;;;;;;;4.85;61.15;91619.44;2065113;69;20228;-83
2024/01/05 09:05:06;;;;;;;18.02;7.90;;;;;;;4.99;61.15;91625.19;2065232;69;20656;-83
2024/01/05 09:07:33;;;;;;;18.17;7.70;;;;;;;4.96;59.41;91634.78;2065181;69;20152;-81
2024/01/05 09:09:59;;;;;;;14.60;8.23;;;;;;;4.96;60.37;91631.97;2064742;69;20145;-81
2024/01/05 09:12:25;;;;;;;24.15;10.40;;;;;;;4.76;61.50;91629.34;2065196;69;20129;-81
2024/01/05 09:14:52;;;;;;;27.48;11.68;;;;;;;4.94;61.48;91635.34;2061584;69;20172;-81
2024/01/05 09:17:19;;;;;;;31.98;12.23;;;;;;;5.15;61.89;91625.50;2064969;69;20141;-81
2024/01/05 09:19:45;;;;;;;24.63;11.25;;;;;;;5.25;61.85;91626.84;2065117;69;20192;-81
2024/01/05 09:22:11;;;;;;;31.90;10.48;;;;;;;5.32;62.59;91633.56;2061783;69;20224;-81
2024/01/05 09:24:37;;;;;;;20.67;10.02;;;;;;;5.39;62.00;91635.38;2065031;69;20216;-81
2024/01/05 09:27:04;;;;;;;21.73;9.25;;;;;;;5.38;61.92;91638.78;2066732;69;20259;-80
2024/01/05 09:29:33;;;;;;;18.45;7.97;;;;;;;5.49;60.60;91629.69;2066090;69;20149;-78
2024/01/05 09:31:59;;;;;;;61.17;27.85;;;;;;;4.68;63.38;91623.25;2066714;69;20685;-79
2024/01/05 09:34:26;;;;;;;70.82;31.50;;;;;;;4.35;62.88;91637.13;2066722;69;20145;-80
2024/01/05 09:36:53;;;;;;;44.78;20.50;;;;;;;4.90;62.21;91631.56;2061893;69;20283;-80
2024/01/05 09:39:19;;;;;;;29.30;11.18;;;;;;;5.20;61.93;91627.22;2066263;69;20141;-78
2024/01/05 09:41:49;;;;;;;20.35;8.75;;;;;;;5.26;61.07;91619.22;2062080;69;20587;-80
2024/01/05 09:44:16;;;;;;;19.52;8.00;;;;;;;5.41;60.67;91629.94;2066574;69;20214;-79
2024/01/05 09:46:43;;;;;;;16.92;7.95;;;;;;;5.43;59.70;91623.75;2061902;69;20222;-80
2024/01/05 09:49:09;;;;;;;19.42;8.60;;;;;;;5.48;59.98;91628.97;2061543;69;20236;-81
2024/01/05 09:51:35;;;;;;;21.40;8.80;;;;;;;5.55;60.05;91636.41;2066662;69;20207;-81
2024/01/05 09:54:02;;;;;;;18.95;8.52;;;;;;;5.62;60.29;91637.50;2066563;69;20145;-82
2024/01/05 09:56:28;;;;;;;25.15;12.38;;;;;;;5.60;59.97;91629.00;2066270;69;20195;-81
2024/01/05 09:58:55;;;;;;;63.78;26.17;;;;;;;5.60;58.72;91626.22;2065054;69;20141;-81
2024/01/05 10:01:28;;;;;;;34.40;15.15;;;;;;;5.20;58.76;91613.97;2065804;69;20203;-81
2024/01/05 10:04:12;;;;;;;50.88;21.73;;;;;;;5.50;58.69;91611.63;2065089;69;20489;-80
2024/01/05 10:06:38;;;;;;;60.30;25.67;;;;;;;5.71;59.05;91605.94;2065229;69;20168;-80
2024/01/05 10:09:06;;;;;;;59.33;24.17;;;;;;;5.83;59.80;91603.88;2061395;69;20145;-80
2024/01/05 10:11:34;;;;;;;53.80;20.63;;;;;;;5.86;60.11;91607.50;2061416;69;20184;-82
2024/01/05 10:14:04;;;;;;;35.95;15.52;;;;;;;5.86;59.88;91597.09;2064912;69;20149;-81
2024/01/05 10:16:37;;;;;;;19.70;7.45;;;;;;;5.57;58.21;91591.84;2064911;69;20145;-82
2024/01/05 10:19:13;;;;;;;38.90;14.03;;;;;;;4.84;62.95;91592.88;2064927;69;20133;-81
2024/01/05 10:21:42;;;;;;;41.75;12.88;;;;;;;5.17;62.62;91576.13;2065111;69;20161;-81
2024/01/05 10:24:29;;;;;;;37.10;11.27;;;;;;;5.50;61.82;91575.34;2065045;69;20161;-82
2024/01/05 10:27:05;;;;;;;33.92;10.55;;;;;;;5.50;60.48;91569.75;2064837;69;20572;-80
2024/01/05 10:29:32;;;;;;;32.45;10.25;;;;;;;5.77;60.38;91572.81;2064835;69;20141;-78
2024/01/05 10:32:15;;;;;;;28.23;10.85;;;;;;;5.82;60.45;91571.00;2064928;69;20287;-78
2024/01/05 10:34:43;;;;;;;27.38;10.40;;;;;;;5.96;60.23;91554.38;2065178;69;20165;-79
2024/01/05 10:37:09;;;;;;;27.20;10.18;;;;;;;5.97;59.64;91553.03;2065044;69;20121;-78
2024/01/05 10:39:35;;;;;;;26.25;9.90;;;;;;;6.07;59.14;91545.94;2065058;69;20637;-78
2024/01/05 10:42:18;;;;;;;25.20;10.63;;;;;;;6.29;58.86;91540.94;2064853;69;20153;-78
2024/01/05 10:44:47;;;;;;;38.33;12.05;;;;;;;6.23;59.09;91546.19;2064764;69;20141;-79
2024/01/05 10:47:16;;;;;;;25.98;11.35;;;;;;;6.32;59.43;91552.94;2063926;69;20234;-78
2024/01/05 10:49:50;;;;;;;24.10;11.30;;;;;;;6.15;58.59;91561.75;2062163;69;20149;-78
2024/01/05 10:52:19;;;;;;;41.88;12.80;;;;;;;5.78;60.23;91562.38;2064671;69;20156;-77
2024/01/05 10:54:46;;;;;;;39.40;13.55;;;;;;;6.13;59.58;91559.53;2064609;69;20151;-77
2024/01/05 10:57:14;;;;;;;31.98;11.05;;;;;;;6.07;60.07;91564.78;2064556;69;20177;-78
2024/01/05 10:59:46;;;;;;;27.35;8.95;;;;;;;5.79;61.41;91555.44;2064994;69;20172;-78
2024/01/05 11:02:24;;;;;;;29.10;8.98;;;;;;;6.27;60.69;91540.06;2064945;69;20212;-78
2024/01/05 11:05:01;;;;;;;22.23;9.05;;;;;;;6.46;60.29;91539.81;2061020;69;20156;-77
2024/01/05 11:07:30;;;;;;;22.80;9.63;;;;;;;6.39;59.43;91532.41;2064904;69;20583;-79
2024/01/05 11:10:18;;;;;;;23.90;9.45;;;;;;;6.57;60.01;91522.25;2064912;69;20608;-78
2024/01/05 11:12:59;;;;;;;25.95;9.70;;;;;;;7.11;59.87;91520.28;2064622;69;20160;-78
2024/01/05 11:15:48;;;;;;;23.50;9.60;;;;;;;7.27;57.31;91507.16;2064850;69;20160;-78
2024/01/05 11:18:28;;;;;;;17.25;6.00;;;;;;;7.12;54.98;91502.88;2061434;69;20144;-78
2024/01/05 11:21:19;;;;;;;17.88;8.60;;;;;;;6.84;57.37;91506.94;2064682;69;20156;-78
2024/01/05 11:23:47;;;;;;;25.60;10.18;;;;;;;6.29;58.00;91495.50;2060499;69;20802;-78
2024/01/05 11:26:39;;;;;;;21.77;10.15;;;;;;;6.80;58.67;91476.66;2064074;69;20200;-78
2024/01/05 11:29:10;;;;;;;22.08;10.40;;;;;;;6.93;58.92;91477.34;2064949;69;20152;-78
2024/01/05 11:31:47;;;;;;;29.50;11.07;;;;;;;7.11;58.35;91465.03;2064866;69;20145;-79
2024/01/05 11:34:28;;;;;;;22.10;9.57;;;;;;;6.95;57.19;91474.63;2061444;69;20172;-78
2024/01/05 11:36:55;;;;;;;24.38;9.65;;;;;;;6.48;58.06;91472.09;2064906;69;20137;-77
2024/01/05 11:39:49;;;;;;;27.02;8.90;;;;;;;6.94;57.93;91468.31;2064470;69;20621;-79